Time,TemperatureF,DewpointF,PressureIn,WindDirection,WindDirectionDegrees,WindSpeedMPH,WindSpeedGustMPH,Humidity,HourlyPrecipIn,Conditions,Clouds,dailyrainin,SoftwareType,DateUTC
2013-06-14 00:00:00,71.3,55.3,30.00,NNE,33,0.0,0.0,57,0.00,,,0.00,VWS V14.01,2013-06-13 22:00:00,
2013-06-14 00:05:00,70.9,54.9,30.00,NNE,33,1.0,2.0,57,0.00,,,0.00,VWS V14.01,2013-06-13 22:05:00,
2013-06-14 00:10:00,71.1,55.1,30.00,NNE,33,0.0,3.0,57,0.00,,,0.00,VWS V14.01,2013-06-13 22:10:00,
2013-06-14 00:15:00,71.3,54.3,30.00,NNE,33,1.0,2.0,55,0.00,,,0.00,VWS V14.01,2013-06-13 22:15:00,
2013-06-14 00:20:00,70.9,54.4,29.99,NNE,33,1.0,2.0,56,0.00,,,0.00,VWS V14.01,2013-06-13 22:20:00,
2013-06-14 00:25:00,70.8,54.3,30.00,NNE,33,0.0,0.0,56,0.00,,,0.00,VWS V14.01,2013-06-13 22:25:00,
2013-06-14 00:30:00,70.5,54.5,30.00,NNE,33,0.0,0.0,57,0.00,,,0.00,VWS V14.01,2013-06-13 22:30:00,
2013-06-14 00:35:00,70.3,54.8,30.00,NNE,33,0.0,0.0,58,0.00,,,0.00,VWS V14.01,2013-06-13 22:35:00,
2013-06-14 00:40:00,70.0,55.0,30.00,NNE,33,1.0,3.0,59,0.00,,,0.00,VWS V14.01,2013-06-13 22:40:00,
2013-06-14 00:45:00,69.7,55.2,30.00,NNE,33,0.0,0.0,60,0.00,,,0.00,VWS V14.01,2013-06-13 22:45:00,
2013-06-14 00:50:00,69.8,55.3,30.00,NNE,33,0.0,3.0,60,0.00,,,0.00,VWS V14.01,2013-06-13 22:50:00,
2013-06-14 00:55:00,69.9,54.9,30.00,NNE,33,0.0,0.0,59,0.00,,,0.00,VWS V14.01,2013-06-13 22:55:00,
2013-06-14 01:00:00,69.9,54.9,30.00,NNE,33,1.0,1.0,59,0.00,,,0.00,VWS V14.01,2013-06-13 23:00:00,
2013-06-14 01:05:00,69.7,54.8,30.00,NNE,33,0.0,0.0,59,0.00,,,0.00,VWS V14.01,2013-06-13 23:05:00,
2013-06-14 01:10:00,69.9,54.9,30.00,NNE,33,1.0,3.0,59,0.00,,,0.00,VWS V14.01,2013-06-13 23:10:00,
2013-06-14 01:15:00,70.1,54.7,30.00,NNE,33,2.0,3.0,58,0.00,,,0.00,VWS V14.01,2013-06-13 23:15:00,
2013-06-14 01:20:00,69.8,54.4,29.99,NNE,33,3.0,4.0,58,0.00,,,0.00,VWS V14.01,2013-06-13 23:20:00,
2013-06-14 01:25:00,70.2,54.8,29.99,NNE,33,0.0,2.0,58,0.00,,,0.00,VWS V14.01,2013-06-13 23:25:00,
2013-06-14 01:30:00,70.2,54.8,29.99,NE,34,0.0,2.0,58,0.00,,,0.00,VWS V14.01,2013-06-13 23:30:00,
2013-06-14 01:35:00,70.1,54.7,29.99,NNE,33,0.0,0.0,58,0.00,,,0.00,VWS V14.01,2013-06-13 23:35:00,
2013-06-14 01:40:00,69.9,54.9,29.99,NNE,33,0.0,0.0,59,0.00,,,0.00,VWS V14.01,2013-06-13 23:40:00,
2013-06-14 01:45:00,69.6,54.7,29.99,NE,34,0.0,1.0,59,0.00,,,0.00,VWS V14.01,2013-06-13 23:45:00,
2013-06-14 01:50:00,69.5,54.6,29.99,NE,34,0.0,3.0,59,0.00,,,0.00,VWS V14.01,2013-06-13 23:50:00,
2013-06-14 01:55:00,69.3,54.4,29.99,NNE,33,2.0,2.0,59,0.00,,,0.00,VWS V14.01,2013-06-13 23:55:00,
2013-06-14 02:00:00,69.2,54.3,29.99,NE,34,0.0,3.0,59,0.00,,,0.00,VWS V14.01,2013-06-14 00:00:00,
2013-06-14 02:05:00,69.7,54.3,29.99,NE,34,0.0,0.0,58,0.00,,,0.00,VWS V14.01,2013-06-14 00:05:00,
2013-06-14 02:10:00,69.9,54.5,29.99,NNE,33,0.0,1.0,58,0.00,,,0.00,VWS V14.01,2013-06-14 00:10:00,
2013-06-14 02:15:00,69.7,54.3,29.99,NNE,33,1.0,2.0,58,0.00,,,0.00,VWS V14.01,2013-06-14 00:15:00,
2013-06-14 02:20:00,69.8,54.4,29.99,NE,34,1.0,3.0,58,0.00,,,0.00,VWS V14.01,2013-06-14 00:20:00,
2013-06-14 02:25:00,69.8,53.9,29.99,NNE,33,0.0,0.0,57,0.00,,,0.00,VWS V14.01,2013-06-14 00:25:00,
2013-06-14 02:30:00,70.0,54.1,29.98,NE,34,0.0,1.0,57,0.00,,,0.00,VWS V14.01,2013-06-14 00:30:00,
2013-06-14 02:35:00,70.1,53.7,29.98,NNE,33,0.0,0.0,56,0.00,,,0.00,VWS V14.01,2013-06-14 00:35:00,
2013-06-14 02:40:00,70.1,53.7,29.98,NE,34,0.0,0.0,56,0.00,,,0.00,VWS V14.01,2013-06-14 00:40:00,
2013-06-14 02:45:00,70.3,53.4,29.98,NE,34,2.0,4.0,55,0.00,,,0.00,VWS V14.01,2013-06-14 00:45:00,
2013-06-14 02:50:00,70.0,53.1,29.98,NNE,33,3.0,5.0,55,0.00,,,0.00,VWS V14.01,2013-06-14 00:50:00,
2013-06-14 02:55:00,69.4,53.0,29.98,NE,34,3.0,4.0,56,0.00,,,0.00,VWS V14.01,2013-06-14 00:55:00,
2013-06-14 03:00:00,69.1,53.2,29.98,NE,34,2.0,4.0,57,0.00,,,0.00,VWS V14.01,2013-06-14 01:00:00,
2013-06-14 03:05:00,69.5,53.6,29.98,NNE,33,4.0,4.0,57,0.00,,,0.00,VWS V14.01,2013-06-14 01:05:00,
2013-06-14 03:10:00,69.5,53.1,29.98,NE,34,3.0,4.0,56,0.00,,,0.00,VWS V14.01,2013-06-14 01:10:00,
2013-06-14 03:15:00,69.3,53.4,29.97,NNE,33,3.0,4.0,57,0.00,,,0.00,VWS V14.01,2013-06-14 01:15:00,
2013-06-14 03:20:00,69.5,53.1,29.97,NE,34,3.0,4.0,56,0.00,,,0.00,VWS V14.01,2013-06-14 01:20:00,
2013-06-14 03:25:00,69.3,53.4,29.97,NE,34,3.0,4.0,57,0.00,,,0.00,VWS V14.01,2013-06-14 01:25:00,
2013-06-14 03:30:00,69.3,53.0,29.97,NE,34,1.0,4.0,56,0.00,,,0.00,VWS V14.01,2013-06-14 01:30:00,
2013-06-14 03:35:00,69.3,53.0,29.97,NE,34,1.0,2.0,56,0.00,,,0.00,VWS V14.01,2013-06-14 01:35:00,
2013-06-14 03:40:00,69.6,53.2,29.97,NE,34,2.0,3.0,56,0.00,,,0.00,VWS V14.01,2013-06-14 01:40:00,
2013-06-14 03:45:00,70.0,53.1,29.97,NNE,33,3.0,3.0,55,0.00,,,0.00,VWS V14.01,2013-06-14 01:45:00,
2013-06-14 03:50:00,70.2,53.3,29.97,NNE,33,2.0,3.0,55,0.00,,,0.00,VWS V14.01,2013-06-14 01:50:00,
2013-06-14 03:55:00,70.3,53.4,29.97,NE,34,3.0,3.0,55,0.00,,,0.00,VWS V14.01,2013-06-14 01:55:00,
2013-06-14 04:00:00,70.3,52.9,29.97,NNE,33,3.0,3.0,54,0.00,,,0.00,VWS V14.01,2013-06-14 02:00:00,
2013-06-14 04:05:00,70.4,53.0,29.97,NNE,33,0.0,2.0,54,0.00,,,0.00,VWS V14.01,2013-06-14 02:05:00,
2013-06-14 04:10:00,70.0,52.6,29.97,NE,34,0.0,2.0,54,0.00,,,0.00,VWS V14.01,2013-06-14 02:10:00,
2013-06-14 04:15:00,69.7,52.8,29.97,NE,34,0.0,0.0,55,0.00,,,0.00,VWS V14.01,2013-06-14 02:15:00,
2013-06-14 04:20:00,69.2,53.3,29.97,NE,34,0.0,0.0,57,0.00,,,0.00,VWS V14.01,2013-06-14 02:20:00,
2013-06-14 04:25:00,69.4,53.5,29.97,NE,34,0.0,0.0,57,0.00,,,0.00,VWS V14.01,2013-06-14 02:25:00,
2013-06-14 04:30:00,69.5,53.1,29.96,NNE,33,0.0,0.0,56,0.00,,,0.00,VWS V14.01,2013-06-14 02:30:00,
2013-06-14 04:35:00,69.8,53.9,29.97,NE,34,0.0,0.0,57,0.00,,,0.00,VWS V14.01,2013-06-14 02:35:00,
2013-06-14 04:40:00,69.9,53.5,29.97,NE,34,0.0,0.0,56,0.00,,,0.00,VWS V14.01,2013-06-14 02:40:00,
2013-06-14 04:45:00,69.4,53.0,29.97,NE,34,0.0,0.0,56,0.00,,,0.00,VWS V14.01,2013-06-14 02:45:00,
2013-06-14 04:50:00,69.3,53.4,29.97,NE,34,0.0,0.0,57,0.00,,,0.00,VWS V14.01,2013-06-14 02:50:00,
2013-06-14 04:55:00,69.3,53.4,29.97,NNE,33,0.0,0.0,57,0.00,,,0.00,VWS V14.01,2013-06-14 02:55:00,
2013-06-14 05:00:00,69.2,53.3,29.96,NE,34,0.0,0.0,57,0.00,,,0.00,VWS V14.01,2013-06-14 03:00:00,
2013-06-14 05:05:00,69.4,53.0,29.97,NNE,33,0.0,0.0,56,0.00,,,0.00,VWS V14.01,2013-06-14 03:05:00,
2013-06-14 05:10:00,69.2,52.8,29.97,NE,34,0.0,0.0,56,0.00,,,0.00,VWS V14.01,2013-06-14 03:10:00,
2013-06-14 05:15:00,69.3,53.4,29.97,NNE,33,0.0,0.0,57,0.00,,,0.00,VWS V14.01,2013-06-14 03:15:00,
2013-06-14 05:20:00,69.2,53.3,29.97,NE,34,0.0,0.0,57,0.00,,,0.00,VWS V14.01,2013-06-14 03:20:00,
2013-06-14 05:25:00,68.8,53.4,29.97,NE,34,0.0,0.0,58,0.00,,,0.00,VWS V14.01,2013-06-14 03:25:00,
2013-06-14 05:30:00,68.4,53.1,29.98,NE,34,0.0,0.0,58,0.00,,,0.00,VWS V14.01,2013-06-14 03:30:00,
2013-06-14 05:35:00,68.2,53.3,29.98,NE,34,0.0,0.0,59,0.00,,,0.00,VWS V14.01,2013-06-14 03:35:00,
2013-06-14 05:40:00,67.8,53.4,29.98,NNE,33,0.0,0.0,60,0.00,,,0.00,VWS V14.01,2013-06-14 03:40:00,
2013-06-14 05:45:00,67.5,53.6,29.98,NE,34,0.0,0.0,61,0.00,,,0.00,VWS V14.01,2013-06-14 03:45:00,
2013-06-14 05:50:00,67.2,53.8,29.98,NNE,33,2.0,3.0,62,0.00,,,0.00,VWS V14.01,2013-06-14 03:50:00,
2013-06-14 05:55:00,67.2,54.2,29.98,NE,34,2.0,3.0,63,0.00,,,0.00,VWS V14.01,2013-06-14 03:55:00,
2013-06-14 06:00:00,67.1,54.1,29.98,NE,34,3.0,3.0,63,0.00,,,0.00,VWS V14.01,2013-06-14 04:00:00,
2013-06-14 06:01:00,67.1,54.1,29.98,NNE,33,3.0,3.0,63,0.00,,,0.00,VWS V14.01,2013-06-14 04:01:00,
2013-06-14 06:06:00,67.0,54.4,29.98,NNE,33,2.0,3.0,64,0.00,,,0.00,VWS V14.01,2013-06-14 04:06:00,
2013-06-14 06:10:00,67.2,54.6,29.98,NE,34,0.0,3.0,64,0.00,,,0.00,VWS V14.01,2013-06-14 04:10:00,
2013-06-14 06:11:00,67.1,54.5,29.98,NNE,33,0.0,3.0,64,0.00,,,0.00,VWS V14.01,2013-06-14 04:11:00,
2013-06-14 06:16:00,67.5,54.9,29.98,NE,34,0.0,1.0,64,0.00,,,0.00,VWS V14.01,2013-06-14 04:16:00,
2013-06-14 06:20:00,68.6,54.6,29.98,NE,34,1.0,2.0,61,0.00,,,0.00,VWS V14.01,2013-06-14 04:20:00,
2013-06-14 06:21:00,68.4,54.9,29.98,NE,34,0.0,2.0,62,0.00,,,0.00,VWS V14.01,2013-06-14 04:21:00,
2013-06-14 06:26:00,68.9,54.9,29.98,NE,34,0.0,1.0,61,0.00,,,0.00,VWS V14.01,2013-06-14 04:26:00,
2013-06-14 06:30:00,69.5,55.0,29.98,NE,34,2.0,3.0,60,0.00,,,0.00,VWS V14.01,2013-06-14 04:30:00,
2013-06-14 06:31:00,69.4,54.9,29.98,NE,34,2.0,3.0,60,0.00,,,0.00,VWS V14.01,2013-06-14 04:31:00,
2013-06-14 06:36:00,69.8,54.8,29.98,NE,53,2.0,5.0,59,0.00,,,0.00,VWS V14.01,2013-06-14 04:36:00,
2013-06-14 06:40:00,70.3,55.3,29.98,ESE,115,2.0,6.0,59,0.00,,,0.00,VWS V14.01,2013-06-14 04:40:00,
2013-06-14 06:41:00,70.2,55.2,29.98,East,96,3.0,6.0,59,0.00,,,0.00,VWS V14.01,2013-06-14 04:41:00,
2013-06-14 06:46:00,70.3,55.8,29.98,SE,124,4.0,5.0,60,0.00,,,0.00,VWS V14.01,2013-06-14 04:46:00,
2013-06-14 06:50:00,70.8,56.2,29.98,SE,126,2.0,5.0,60,0.00,,,0.00,VWS V14.01,2013-06-14 04:50:00,
2013-06-14 06:51:00,70.7,56.2,29.98,SE,125,3.0,5.0,60,0.00,,,0.00,VWS V14.01,2013-06-14 04:51:00,
2013-06-14 06:56:00,70.9,56.3,29.98,SE,126,2.0,4.0,60,0.00,,,0.00,VWS V14.01,2013-06-14 04:56:00,
2013-06-14 07:00:00,71.2,57.1,29.98,SE,126,3.0,5.0,61,0.00,,,0.00,VWS V14.01,2013-06-14 05:00:00,
2013-06-14 07:01:00,71.1,57.0,29.98,SE,126,1.0,5.0,61,0.00,,,0.00,VWS V14.01,2013-06-14 05:01:00,
2013-06-14 07:06:00,71.2,57.5,29.98,SE,125,3.0,5.0,62,0.00,,,0.00,VWS V14.01,2013-06-14 05:06:00,
2013-06-14 07:10:00,71.2,58.0,29.98,ESE,120,4.0,5.0,63,0.00,,,0.00,VWS V14.01,2013-06-14 05:10:00,
2013-06-14 07:11:00,71.2,58.0,29.98,ESE,120,4.0,5.0,63,0.00,,,0.00,VWS V14.01,2013-06-14 05:11:00,
2013-06-14 07:16:00,71.3,58.5,29.98,SE,126,3.0,6.0,64,0.00,,,0.00,VWS V14.01,2013-06-14 05:16:00,
2013-06-14 07:20:00,71.5,59.1,29.99,SE,132,1.0,6.0,65,0.00,,,0.00,VWS V14.01,2013-06-14 05:20:00,
2013-06-14 07:21:00,71.4,59.0,29.99,SE,132,2.0,6.0,65,0.00,,,0.00,VWS V14.01,2013-06-14 05:21:00,
2013-06-14 07:26:00,71.6,59.2,29.98,SE,132,0.0,4.0,65,0.00,,,0.00,VWS V14.01,2013-06-14 05:26:00,
2013-06-14 07:30:00,71.9,59.9,29.98,SE,140,6.0,6.0,66,0.00,,,0.00,VWS V14.01,2013-06-14 05:30:00,
2013-06-14 07:31:00,71.8,59.4,29.98,SE,139,3.0,5.0,65,0.00,,,0.00,VWS V14.01,2013-06-14 05:31:00,
2013-06-14 07:36:00,71.9,59.9,29.99,SSE,148,5.0,6.0,66,0.00,,,0.00,VWS V14.01,2013-06-14 05:36:00,
2013-06-14 07:40:00,71.9,59.9,29.99,SSE,159,1.0,6.0,66,0.00,,,0.00,VWS V14.01,2013-06-14 05:40:00,
2013-06-14 07:41:00,72.0,60.0,29.99,SSE,157,4.0,6.0,66,0.00,,,0.00,VWS V14.01,2013-06-14 05:41:00,
2013-06-14 07:46:00,71.9,59.9,29.99,SSE,158,3.0,6.0,66,0.00,,,0.00,VWS V14.01,2013-06-14 05:46:00,
2013-06-14 07:50:00,72.2,60.7,29.99,SSE,155,1.0,6.0,67,0.00,,,0.00,VWS V14.01,2013-06-14 05:50:00,
2013-06-14 07:51:00,72.1,60.5,29.99,SSE,155,2.0,6.0,67,0.00,,,0.00,VWS V14.01,2013-06-14 05:51:00,
2013-06-14 07:56:00,72.2,60.7,29.99,South,172,4.0,5.0,67,0.00,,,0.00,VWS V14.01,2013-06-14 05:56:00,
2013-06-14 08:00:00,71.7,60.6,30.00,South,169,3.0,6.0,68,0.00,,,0.00,VWS V14.01,2013-06-14 06:00:00,
2013-06-14 08:01:00,71.8,60.7,30.00,South,178,4.0,6.0,68,0.00,,,0.00,VWS V14.01,2013-06-14 06:01:00,
2013-06-14 08:06:00,71.9,61.2,30.00,South,169,3.0,3.0,69,0.00,,,0.00,VWS V14.01,2013-06-14 06:06:00,
2013-06-14 08:10:00,71.6,60.9,30.00,South,183,4.0,7.0,69,0.00,,,0.00,VWS V14.01,2013-06-14 06:10:00,
2013-06-14 08:11:00,72.0,61.3,30.00,South,177,5.0,7.0,69,0.00,,,0.00,VWS V14.01,2013-06-14 06:11:00,
2013-06-14 08:16:00,71.8,61.5,30.00,SSE,168,0.0,5.0,70,0.00,,,0.00,VWS V14.01,2013-06-14 06:16:00,
2013-06-14 08:20:00,71.6,61.3,30.00,SSW,202,2.0,6.0,70,0.00,,,0.00,VWS V14.01,2013-06-14 06:20:00,
2013-06-14 08:21:00,71.9,61.6,30.00,SSW,194,4.0,5.0,70,0.00,,,0.00,VWS V14.01,2013-06-14 06:21:00,
2013-06-14 08:26:00,71.2,61.3,30.00,SW,216,2.0,6.0,71,0.00,,,0.00,VWS V14.01,2013-06-14 06:26:00,
2013-06-14 08:30:00,71.1,61.6,30.00,SSW,209,2.0,6.0,72,0.00,,,0.00,VWS V14.01,2013-06-14 06:30:00,
2013-06-14 08:31:00,71.2,61.7,30.00,SSW,209,6.0,6.0,72,0.00,,,0.00,VWS V14.01,2013-06-14 06:31:00,
2013-06-14 08:36:00,71.1,61.2,30.00,SSW,208,1.0,5.0,71,0.00,,,0.00,VWS V14.01,2013-06-14 06:36:00,
2013-06-14 08:40:00,70.8,60.9,30.00,SSW,208,1.0,6.0,71,0.00,,,0.00,VWS V14.01,2013-06-14 06:40:00,
2013-06-14 08:41:00,70.8,60.9,30.00,SSW,208,2.0,6.0,71,0.00,,,0.00,VWS V14.01,2013-06-14 06:41:00,
2013-06-14 08:46:00,71.3,61.4,30.00,South,188,5.0,7.0,71,0.00,,,0.00,VWS V14.01,2013-06-14 06:46:00,
2013-06-14 08:50:00,71.1,60.8,30.00,SSW,200,0.0,7.0,70,0.00,,,0.00,VWS V14.01,2013-06-14 06:50:00,
2013-06-14 08:51:00,71.1,60.8,30.01,SSW,200,3.0,7.0,70,0.00,,,0.00,VWS V14.01,2013-06-14 06:51:00,
2013-06-14 08:56:00,71.4,60.7,30.00,SSW,211,3.0,5.0,69,0.00,,,0.00,VWS V14.01,2013-06-14 06:56:00,
2013-06-14 09:00:00,72.2,61.1,30.00,SSW,211,1.0,5.0,68,0.00,,,0.00,VWS V14.01,2013-06-14 07:00:00,
2013-06-14 09:01:00,72.0,61.3,30.00,SSW,211,1.0,5.0,69,0.00,,,0.00,VWS V14.01,2013-06-14 07:01:00,
2013-06-14 09:06:00,72.4,61.2,30.00,SSW,211,3.0,3.0,68,0.00,,,0.00,VWS V14.01,2013-06-14 07:06:00,
2013-06-14 09:10:00,72.3,59.9,30.01,WSW,248,0.0,5.0,65,0.00,,,0.00,VWS V14.01,2013-06-14 07:10:00,
2013-06-14 09:11:00,72.2,59.8,30.01,WSW,248,1.0,5.0,65,0.00,,,0.00,VWS V14.01,2013-06-14 07:11:00,
2013-06-14 09:16:00,72.4,59.5,30.01,West,265,2.0,5.0,64,0.00,,,0.00,VWS V14.01,2013-06-14 07:16:00,
2013-06-14 09:20:00,72.7,58.0,30.01,WSW,250,1.0,5.0,60,0.00,,,0.00,VWS V14.01,2013-06-14 07:20:00,
2013-06-14 09:21:00,72.7,58.0,30.01,WSW,251,4.0,5.0,60,0.00,,,0.00,VWS V14.01,2013-06-14 07:21:00,
2013-06-14 09:26:00,72.8,57.7,30.01,WSW,250,0.0,4.0,59,0.00,,,0.00,VWS V14.01,2013-06-14 07:26:00,
2013-06-14 09:30:00,72.5,58.8,30.00,WSW,239,6.0,8.0,62,0.00,,,0.00,VWS V14.01,2013-06-14 07:30:00,
2013-06-14 09:31:00,72.7,58.5,30.00,WSW,243,7.0,7.0,61,0.00,,,0.00,VWS V14.01,2013-06-14 07:31:00,
2013-06-14 09:36:00,72.1,59.7,30.00,SW,225,5.0,6.0,65,0.00,,,0.00,VWS V14.01,2013-06-14 07:36:00,
2013-06-14 09:40:00,71.9,61.6,30.00,WSW,250,5.0,8.0,70,0.00,,,0.00,VWS V14.01,2013-06-14 07:40:00,
2013-06-14 09:41:00,71.6,60.9,30.00,WSW,249,5.0,8.0,69,0.00,,,0.00,VWS V14.01,2013-06-14 07:41:00,
2013-06-14 09:46:00,72.1,62.2,30.00,West,272,5.0,8.0,71,0.00,,,0.00,VWS V14.01,2013-06-14 07:46:00,
2013-06-14 09:50:00,71.6,62.5,30.01,South,181,6.0,9.0,73,0.00,,,0.00,VWS V14.01,2013-06-14 07:50:00,
2013-06-14 09:51:00,71.6,62.1,30.01,SW,226,3.0,9.0,72,0.00,,,0.00,VWS V14.01,2013-06-14 07:51:00,
2013-06-14 09:56:00,71.3,62.6,30.01,SSW,198,7.0,7.0,74,0.00,,,0.00,VWS V14.01,2013-06-14 07:56:00,
2013-06-14 10:00:00,70.7,62.0,30.01,SW,233,6.0,10.0,74,0.00,,,0.00,VWS V14.01,2013-06-14 08:00:00,
2013-06-14 10:01:00,70.7,61.6,30.01,SW,229,5.0,10.0,73,0.00,,,0.00,VWS V14.01,2013-06-14 08:01:00,
2013-06-14 10:06:00,70.7,62.4,30.01,SW,219,10.0,11.0,75,0.00,,,0.00,VWS V14.01,2013-06-14 08:06:00,
2013-06-14 10:10:00,71.6,63.6,30.01,SSW,208,11.0,11.0,76,0.00,,,0.00,VWS V14.01,2013-06-14 08:10:00,
2013-06-14 10:11:00,71.2,63.3,30.01,South,184,4.0,11.0,76,0.00,,,0.00,VWS V14.01,2013-06-14 08:11:00,
2013-06-14 10:16:00,72.0,64.4,30.01,South,176,5.0,11.0,77,0.00,,,0.00,VWS V14.01,2013-06-14 08:16:00,
2013-06-14 10:20:00,72.0,64.8,30.01,South,175,12.0,12.0,78,0.00,,,0.00,VWS V14.01,2013-06-14 08:20:00,
2013-06-14 10:21:00,72.5,65.3,30.01,SSW,211,5.0,11.0,78,0.00,,,0.00,VWS V14.01,2013-06-14 08:21:00,
2013-06-14 10:26:00,71.6,64.8,30.01,SSW,192,8.0,12.0,79,0.00,,,0.00,VWS V14.01,2013-06-14 08:26:00,
2013-06-14 10:30:00,71.4,64.9,30.01,SE,130,6.0,12.0,80,0.00,,,0.00,VWS V14.01,2013-06-14 08:30:00,
2013-06-14 10:31:00,71.4,64.9,30.01,SE,145,9.0,12.0,80,0.00,,,0.00,VWS V14.01,2013-06-14 08:31:00,
2013-06-14 10:36:00,71.8,65.3,30.01,SSW,213,9.0,9.0,80,0.00,,,0.00,VWS V14.01,2013-06-14 08:36:00,
2013-06-14 10:40:00,72.0,65.9,30.01,South,182,5.0,9.0,81,0.00,,,0.00,VWS V14.01,2013-06-14 08:40:00,
2013-06-14 10:41:00,72.0,65.9,30.01,SSE,163,3.0,9.0,81,0.00,,,0.00,VWS V14.01,2013-06-14 08:41:00,
2013-06-14 10:46:00,72.0,65.9,30.01,SSW,202,4.0,8.0,81,0.00,,,0.00,VWS V14.01,2013-06-14 08:46:00,
2013-06-14 10:50:00,70.2,64.4,30.01,SW,224,6.0,10.0,82,0.00,,,0.00,VWS V14.01,2013-06-14 08:50:00,
2013-06-14 10:51:00,70.8,65.0,30.01,SW,231,8.0,10.0,82,0.00,,,0.00,VWS V14.01,2013-06-14 08:51:00,
2013-06-14 10:56:00,70.4,65.0,30.01,SSW,202,6.0,10.0,83,0.00,,,0.00,VWS V14.01,2013-06-14 08:56:00,
2013-06-14 11:00:00,70.5,65.1,30.01,South,178,5.0,10.0,83,0.00,,,0.00,VWS V14.01,2013-06-14 09:00:00,
2013-06-14 11:01:00,70.6,65.5,30.01,SSE,164,7.0,10.0,84,0.00,,,0.00,VWS V14.01,2013-06-14 09:01:00,
2013-06-14 11:06:00,70.9,65.5,30.01,SSE,167,7.0,7.0,83,0.00,,,0.00,VWS V14.01,2013-06-14 09:06:00,
2013-06-14 11:10:00,70.5,64.8,30.01,South,173,8.0,10.0,82,0.00,,,0.00,VWS V14.01,2013-06-14 09:10:00,
2013-06-14 11:11:00,70.9,65.1,30.01,SSW,205,9.0,9.0,82,0.00,,,0.00,VWS V14.01,2013-06-14 09:11:00,
2013-06-14 11:16:00,71.0,65.6,30.01,SE,142,7.0,8.0,83,0.00,,,0.00,VWS V14.01,2013-06-14 09:16:00,
2013-06-14 11:20:00,71.5,65.7,30.01,SSW,194,7.0,10.0,82,0.00,,,0.00,VWS V14.01,2013-06-14 09:20:00,
2013-06-14 11:21:00,71.5,66.1,30.01,SW,225,10.0,10.0,83,0.00,,,0.00,VWS V14.01,2013-06-14 09:21:00,
2013-06-14 11:26:00,71.0,65.2,30.01,South,175,6.0,11.0,82,0.00,,,0.00,VWS V14.01,2013-06-14 09:26:00,
2013-06-14 11:30:00,70.8,65.4,30.01,SE,146,7.0,11.0,83,0.00,,,0.00,VWS V14.01,2013-06-14 09:30:00,
2013-06-14 11:31:00,71.1,66.0,30.01,SSE,159,8.0,11.0,84,0.00,,,0.00,VWS V14.01,2013-06-14 09:31:00,
2013-06-14 11:36:00,70.7,65.3,30.01,SSE,165,6.0,9.0,83,0.00,,,0.00,VWS V14.01,2013-06-14 09:36:00,
2013-06-14 11:40:00,71.0,65.6,30.01,SSW,209,7.0,10.0,83,0.00,,,0.00,VWS V14.01,2013-06-14 09:40:00,
2013-06-14 11:41:00,71.2,65.4,30.01,SSW,202,7.0,10.0,82,0.00,,,0.00,VWS V14.01,2013-06-14 09:41:00,
2013-06-14 11:46:00,71.1,65.7,30.01,SSW,194,5.0,8.0,83,0.00,,,0.00,VWS V14.01,2013-06-14 09:46:00,
2013-06-14 11:50:00,71.4,65.6,30.01,South,176,6.0,8.0,82,0.00,,,0.00,VWS V14.01,2013-06-14 09:50:00,
2013-06-14 11:51:00,71.4,66.0,30.01,SW,236,4.0,8.0,83,0.00,,,0.00,VWS V14.01,2013-06-14 09:51:00,
2013-06-14 11:56:00,71.8,66.0,30.01,SSE,167,5.0,6.0,82,0.00,,,0.00,VWS V14.01,2013-06-14 09:56:00,
2013-06-14 12:00:00,71.4,64.9,30.01,SSW,207,5.0,8.0,80,0.00,,,0.00,VWS V14.01,2013-06-14 10:00:00,
2013-06-14 12:01:00,71.5,65.0,30.01,SSW,203,5.0,7.0,80,0.00,,,0.00,VWS V14.01,2013-06-14 10:01:00,
2013-06-14 12:06:00,71.6,65.1,30.01,SSW,202,3.0,7.0,80,0.00,,,0.00,VWS V14.01,2013-06-14 10:06:00,
2013-06-14 12:10:00,72.1,65.2,30.01,SSE,157,7.0,9.0,79,0.00,,,0.00,VWS V14.01,2013-06-14 10:10:00,
2013-06-14 12:11:00,72.0,65.1,30.01,South,176,5.0,8.0,79,0.00,,,0.00,VWS V14.01,2013-06-14 10:11:00,
2013-06-14 12:16:00,72.5,65.6,30.00,South,181,3.0,7.0,79,0.00,,,0.00,VWS V14.01,2013-06-14 10:16:00,
2013-06-14 12:20:00,72.4,64.4,30.00,SE,144,5.0,9.0,76,0.00,,,0.00,VWS V14.01,2013-06-14 10:20:00,
2013-06-14 12:21:00,72.7,65.4,30.00,South,188,4.0,9.0,78,0.00,,,0.00,VWS V14.01,2013-06-14 10:21:00,
2013-06-14 12:26:00,72.2,64.6,30.00,SSE,161,6.0,9.0,77,0.00,,,0.00,VWS V14.01,2013-06-14 10:26:00,
2013-06-14 12:30:00,71.7,65.2,30.00,SSE,167,7.0,11.0,80,0.00,,,0.00,VWS V14.01,2013-06-14 10:30:00,
2013-06-14 12:31:00,72.1,65.2,30.00,SSW,197,8.0,10.0,79,0.00,,,0.00,VWS V14.01,2013-06-14 10:31:00,
2013-06-14 12:36:00,71.2,64.7,30.00,SSW,194,9.0,11.0,80,0.00,,,0.00,VWS V14.01,2013-06-14 10:36:00,
2013-06-14 12:40:00,72.1,65.9,30.01,SW,233,3.0,11.0,81,0.00,,,0.00,VWS V14.01,2013-06-14 10:40:00,
2013-06-14 12:41:00,71.9,65.8,30.00,SSW,212,4.0,11.0,81,0.00,,,0.00,VWS V14.01,2013-06-14 10:41:00,
2013-06-14 12:46:00,71.8,65.7,30.01,SSE,161,4.0,12.0,81,0.00,,,0.00,VWS V14.01,2013-06-14 10:46:00,
2013-06-14 12:50:00,71.7,65.9,30.00,South,182,6.0,12.0,82,0.00,,,0.00,VWS V14.01,2013-06-14 10:50:00,
2013-06-14 12:51:00,72.1,66.7,30.00,SW,215,5.0,12.0,83,0.00,,,0.00,VWS V14.01,2013-06-14 10:51:00,
2013-06-14 12:56:00,71.9,66.1,30.00,South,178,10.0,10.0,82,0.00,,,0.00,VWS V14.01,2013-06-14 10:56:00,
2013-06-14 13:00:00,71.6,65.5,30.00,South,180,6.0,10.0,81,0.00,,,0.00,VWS V14.01,2013-06-14 11:00:00,
2013-06-14 13:01:00,71.8,65.7,30.00,South,172,7.0,10.0,81,0.00,,,0.00,VWS V14.01,2013-06-14 11:01:00,
2013-06-14 13:06:00,71.9,66.1,30.00,South,176,7.0,8.0,82,0.00,,,0.00,VWS V14.01,2013-06-14 11:06:00,
2013-06-14 13:10:00,72.7,67.2,30.01,South,178,10.0,10.0,83,0.00,,,0.00,VWS V14.01,2013-06-14 11:10:00,
2013-06-14 13:11:00,72.1,66.3,30.01,SW,226,7.0,8.0,82,0.00,,,0.00,VWS V14.01,2013-06-14 11:11:00,
2013-06-14 13:16:00,71.6,65.1,30.01,SSE,162,6.0,10.0,80,0.00,,,0.00,VWS V14.01,2013-06-14 11:16:00,
2013-06-14 13:20:00,71.4,65.6,30.01,SSW,205,4.0,10.0,82,0.00,,,0.00,VWS V14.01,2013-06-14 11:20:00,
2013-06-14 13:21:00,71.9,66.1,30.01,South,190,9.0,10.0,82,0.00,,,0.00,VWS V14.01,2013-06-14 11:21:00,
2013-06-14 13:26:00,71.8,66.4,30.00,South,171,6.0,9.0,83,0.00,,,0.00,VWS V14.01,2013-06-14 11:26:00,
2013-06-14 13:30:00,71.7,65.6,30.01,South,178,11.0,11.0,81,0.00,,,0.00,VWS V14.01,2013-06-14 11:30:00,
2013-06-14 13:31:00,72.0,66.2,30.00,SW,224,5.0,9.0,82,0.00,,,0.00,VWS V14.01,2013-06-14 11:31:00,
2013-06-14 13:36:00,71.4,65.6,30.00,South,178,5.0,11.0,82,0.00,,,0.00,VWS V14.01,2013-06-14 11:36:00,
2013-06-14 13:40:00,72.6,66.4,30.00,SSW,204,6.0,11.0,81,0.00,,,0.00,VWS V14.01,2013-06-14 11:40:00,
2013-06-14 13:41:00,72.0,65.9,30.00,South,179,5.0,11.0,81,0.00,,,0.00,VWS V14.01,2013-06-14 11:41:00,
2013-06-14 13:46:00,72.0,65.5,30.00,SSW,211,7.0,10.0,80,0.00,,,0.00,VWS V14.01,2013-06-14 11:46:00,
2013-06-14 13:50:00,71.8,64.9,30.00,SW,227,4.0,10.0,79,0.00,,,0.00,VWS V14.01,2013-06-14 11:50:00,
2013-06-14 13:51:00,71.7,64.8,30.00,SSW,205,7.0,10.0,79,0.00,,,0.00,VWS V14.01,2013-06-14 11:51:00,
2013-06-14 13:56:00,72.3,65.4,30.00,SSW,211,3.0,10.0,79,0.00,,,0.00,VWS V14.01,2013-06-14 11:56:00,
2013-06-14 14:00:00,72.6,66.1,30.00,SSW,207,7.0,10.0,80,0.00,,,0.00,VWS V14.01,2013-06-14 12:00:00,
2013-06-14 14:01:00,72.2,65.3,30.00,South,173,9.0,10.0,79,0.00,,,0.00,VWS V14.01,2013-06-14 12:01:00,
2013-06-14 14:06:00,72.6,65.3,30.00,South,188,8.0,8.0,78,0.00,,,0.00,VWS V14.01,2013-06-14 12:06:00,
2013-06-14 14:10:00,72.7,66.2,30.00,SSW,205,6.0,11.0,80,0.00,,,0.00,VWS V14.01,2013-06-14 12:10:00,
2013-06-14 14:11:00,72.8,66.3,30.00,WSW,239,6.0,11.0,80,0.00,,,0.00,VWS V14.01,2013-06-14 12:11:00,
2013-06-14 14:16:00,72.9,66.0,30.00,WSW,251,5.0,8.0,79,0.00,,,0.00,VWS V14.01,2013-06-14 12:16:00,
2013-06-14 14:20:00,72.4,65.2,30.00,SSW,205,6.0,10.0,78,0.00,,,0.00,VWS V14.01,2013-06-14 12:20:00,
2013-06-14 14:21:00,72.9,65.7,30.00,SW,229,10.0,10.0,78,0.00,,,0.00,VWS V14.01,2013-06-14 12:21:00,
2013-06-14 14:26:00,72.6,65.7,30.00,SW,219,3.0,9.0,79,0.00,,,0.00,VWS V14.01,2013-06-14 12:26:00,
2013-06-14 14:30:00,72.6,65.3,30.01,WSW,237,7.0,11.0,78,0.00,,,0.00,VWS V14.01,2013-06-14 12:30:00,
2013-06-14 14:31:00,73.1,66.2,30.00,SSW,213,8.0,9.0,79,0.00,,,0.00,VWS V14.01,2013-06-14 12:31:00,
2013-06-14 14:36:00,72.6,66.1,30.00,WSW,244,7.0,12.0,80,0.00,,,0.00,VWS V14.01,2013-06-14 12:36:00,
2013-06-14 14:40:00,72.2,65.7,30.00,South,182,8.0,12.0,80,0.00,,,0.00,VWS V14.01,2013-06-14 12:40:00,
2013-06-14 14:41:00,72.5,66.7,30.00,SW,231,9.0,12.0,82,0.00,,,0.00,VWS V14.01,2013-06-14 12:41:00,
2013-06-14 14:46:00,72.0,66.2,30.00,SW,232,5.0,11.0,82,0.00,,,0.00,VWS V14.01,2013-06-14 12:46:00,
2013-06-14 14:50:00,71.8,66.0,30.00,SSW,207,9.0,14.0,82,0.00,,,0.00,VWS V14.01,2013-06-14 12:50:00,
2013-06-14 14:51:00,71.9,66.1,30.00,South,179,10.0,14.0,82,0.00,,,0.00,VWS V14.01,2013-06-14 12:51:00,
2013-06-14 14:56:00,72.1,66.3,30.00,SW,233,10.0,11.0,82,0.00,,,0.00,VWS V14.01,2013-06-14 12:56:00,
2013-06-14 15:00:00,72.8,66.6,30.00,WNW,285,5.0,12.0,81,0.00,,,0.00,VWS V14.01,2013-06-14 13:00:00,
2013-06-14 15:01:00,72.5,66.3,30.00,WSW,240,7.0,12.0,81,0.00,,,0.00,VWS V14.01,2013-06-14 13:01:00,
2013-06-14 15:06:00,72.7,66.2,30.00,West,259,8.0,12.0,80,0.00,,,0.00,VWS V14.01,2013-06-14 13:06:00,
2013-06-14 15:10:00,72.8,66.3,30.00,SW,236,12.0,12.0,80,0.00,,,0.00,VWS V14.01,2013-06-14 13:10:00,
2013-06-14 15:11:00,73.3,66.8,30.00,SW,234,8.0,12.0,80,0.00,,,0.00,VWS V14.01,2013-06-14 13:11:00,
2013-06-14 15:16:00,72.7,66.5,30.00,SW,227,12.0,12.0,81,0.00,,,0.00,VWS V14.01,2013-06-14 13:16:00,
2013-06-14 15:20:00,72.1,66.7,30.00,SSW,211,8.0,12.0,83,0.00,,,0.00,VWS V14.01,2013-06-14 13:20:00,
2013-06-14 15:21:00,72.1,66.7,30.00,SW,232,7.0,12.0,83,0.00,,,0.00,VWS V14.01,2013-06-14 13:21:00,
2013-06-14 15:26:00,72.0,66.6,30.00,WSW,240,9.0,12.0,83,0.00,,,0.00,VWS V14.01,2013-06-14 13:26:00,
2013-06-14 15:30:00,72.7,67.2,30.00,South,187,4.0,12.0,83,0.00,,,0.00,VWS V14.01,2013-06-14 13:30:00,
2013-06-14 15:31:00,72.4,67.3,30.00,South,172,3.0,12.0,84,0.00,,,0.00,VWS V14.01,2013-06-14 13:31:00,
2013-06-14 15:36:00,72.7,67.2,30.00,WSW,242,4.0,9.0,83,0.00,,,0.00,VWS V14.01,2013-06-14 13:36:00,
2013-06-14 15:40:00,72.2,66.8,30.00,SW,230,6.0,11.0,83,0.00,,,0.00,VWS V14.01,2013-06-14 13:40:00,
2013-06-14 15:41:00,72.3,66.8,30.00,SW,234,4.0,11.0,83,0.00,,,0.00,VWS V14.01,2013-06-14 13:41:00,
2013-06-14 15:46:00,72.3,67.2,30.00,SW,231,8.0,10.0,84,0.00,,,0.00,VWS V14.01,2013-06-14 13:46:00,
2013-06-14 15:50:00,72.4,66.9,29.99,SSW,194,8.0,10.0,83,0.00,,,0.00,VWS V14.01,2013-06-14 13:50:00,
2013-06-14 15:51:00,72.5,67.4,29.99,South,182,8.0,10.0,84,0.00,,,0.00,VWS V14.01,2013-06-14 13:51:00,
2013-06-14 15:56:00,72.5,67.4,29.99,SSW,206,5.0,8.0,84,0.00,,,0.00,VWS V14.01,2013-06-14 13:56:00,
2013-06-14 16:00:00,73.0,67.5,29.99,SW,219,7.0,9.0,83,0.00,,,0.00,VWS V14.01,2013-06-14 14:00:00,
2013-06-14 16:01:00,72.8,67.3,29.99,SW,223,3.0,9.0,83,0.00,,,0.00,VWS V14.01,2013-06-14 14:01:00,
2013-06-14 16:06:00,73.0,67.5,29.99,WSW,242,5.0,7.0,83,0.00,,,0.00,VWS V14.01,2013-06-14 14:06:00,
2013-06-14 16:10:00,72.8,67.0,29.99,SSE,158,4.0,8.0,82,0.00,,,0.00,VWS V14.01,2013-06-14 14:10:00,
2013-06-14 16:11:00,72.9,67.1,29.99,SSW,192,6.0,8.0,82,0.00,,,0.00,VWS V14.01,2013-06-14 14:11:00,
2013-06-14 16:16:00,73.0,67.5,29.99,SW,221,4.0,7.0,83,0.00,,,0.00,VWS V14.01,2013-06-14 14:16:00,
2013-06-14 16:20:00,72.7,66.5,29.99,SW,228,8.0,10.0,81,0.00,,,0.00,VWS V14.01,2013-06-14 14:20:00,
2013-06-14 16:21:00,73.4,67.6,29.99,SW,235,6.0,10.0,82,0.00,,,0.00,VWS V14.01,2013-06-14 14:21:00,
2013-06-14 16:26:00,72.3,66.5,29.99,WSW,238,4.0,8.0,82,0.00,,,0.00,VWS V14.01,2013-06-14 14:26:00,
2013-06-14 16:30:00,72.9,67.4,29.99,SW,224,5.0,10.0,83,0.00,,,0.00,VWS V14.01,2013-06-14 14:30:00,
2013-06-14 16:31:00,72.8,67.3,29.99,SSW,205,6.0,10.0,83,0.00,,,0.00,VWS V14.01,2013-06-14 14:31:00,
2013-06-14 16:36:00,73.0,67.2,29.99,South,186,8.0,9.0,82,0.00,,,0.00,VWS V14.01,2013-06-14 14:36:00,
2013-06-14 16:40:00,72.7,67.2,29.99,SSW,211,7.0,9.0,83,0.00,,,0.00,VWS V14.01,2013-06-14 14:40:00,
2013-06-14 16:41:00,72.5,67.1,29.99,SSW,192,5.0,9.0,83,0.00,,,0.00,VWS V14.01,2013-06-14 14:41:00,
2013-06-14 16:46:00,72.5,67.1,29.99,SSW,200,3.0,8.0,83,0.00,,,0.00,VWS V14.01,2013-06-14 14:46:00,
2013-06-14 16:50:00,72.5,67.4,30.00,SSW,211,10.0,10.0,84,0.00,,,0.00,VWS V14.01,2013-06-14 14:50:00,
2013-06-14 16:51:00,72.6,67.2,30.00,South,172,7.0,8.0,83,0.00,,,0.00,VWS V14.01,2013-06-14 14:51:00,
2013-06-14 16:56:00,72.4,67.3,30.00,SSW,192,7.0,10.0,84,0.00,,,0.00,VWS V14.01,2013-06-14 14:56:00,
2013-06-14 17:00:00,71.9,67.2,30.00,SSW,194,8.0,10.0,85,0.00,,,0.00,VWS V14.01,2013-06-14 15:00:00,
2013-06-14 17:01:00,72.0,67.2,30.00,South,180,7.0,10.0,85,0.00,,,0.00,VWS V14.01,2013-06-14 15:01:00,
2013-06-14 17:06:00,71.9,67.2,30.00,SSW,207,6.0,9.0,85,0.00,,,0.00,VWS V14.01,2013-06-14 15:06:00,
2013-06-14 17:10:00,71.9,67.2,29.99,South,184,7.0,9.0,85,0.00,,,0.00,VWS V14.01,2013-06-14 15:10:00,
2013-06-14 17:11:00,72.0,67.2,29.99,South,180,8.0,9.0,85,0.00,,,0.00,VWS V14.01,2013-06-14 15:11:00,
2013-06-14 17:16:00,71.8,67.1,29.99,South,190,4.0,7.0,85,0.00,,,0.00,VWS V14.01,2013-06-14 15:16:00,
2013-06-14 17:20:00,72.3,67.5,29.99,SSW,207,4.0,8.0,85,0.00,,,0.00,VWS V14.01,2013-06-14 15:20:00,
2013-06-14 17:21:00,72.4,68.0,29.99,South,190,3.0,8.0,86,0.00,,,0.00,VWS V14.01,2013-06-14 15:21:00,
2013-06-14 17:26:00,72.2,67.4,29.99,SSW,209,7.0,7.0,85,0.00,,,0.00,VWS V14.01,2013-06-14 15:26:00,
2013-06-14 17:30:00,72.4,67.6,29.99,SSW,192,6.0,8.0,85,0.00,,,0.00,VWS V14.01,2013-06-14 15:30:00,
2013-06-14 17:31:00,72.1,67.3,29.99,SW,228,6.0,8.0,85,0.00,,,0.00,VWS V14.01,2013-06-14 15:31:00,
2013-06-14 17:36:00,72.4,67.6,29.99,SSW,204,7.0,7.0,85,0.00,,,0.00,VWS V14.01,2013-06-14 15:36:00,
2013-06-14 17:40:00,72.7,67.9,29.99,SW,228,3.0,8.0,85,0.00,,,0.00,VWS V14.01,2013-06-14 15:40:00,
2013-06-14 17:41:00,72.4,67.6,29.99,SW,234,5.0,7.0,85,0.00,,,0.00,VWS V14.01,2013-06-14 15:41:00,
2013-06-14 17:46:00,72.7,67.6,29.99,SW,225,0.0,5.0,84,0.00,,,0.00,VWS V14.01,2013-06-14 15:46:00,
2013-06-14 17:50:00,73.2,67.7,29.99,SSW,205,3.0,6.0,83,0.00,,,0.00,VWS V14.01,2013-06-14 15:50:00,
2013-06-14 17:51:00,73.4,68.3,29.99,WNW,282,5.0,6.0,84,0.00,,,0.00,VWS V14.01,2013-06-14 15:51:00,
2013-06-14 17:56:00,73.3,67.8,29.99,SW,219,4.0,6.0,83,0.00,,,0.00,VWS V14.01,2013-06-14 15:56:00,
2013-06-14 18:00:00,74.2,68.4,29.99,SSW,202,4.0,6.0,82,0.00,,,0.00,VWS V14.01,2013-06-14 16:00:00,
2013-06-14 18:01:00,73.8,68.3,29.99,SW,232,1.0,6.0,83,0.00,,,0.00,VWS V14.01,2013-06-14 16:01:00,
2013-06-14 18:06:00,74.1,68.3,29.99,SW,229,3.0,4.0,82,0.00,,,0.00,VWS V14.01,2013-06-14 16:06:00,
2013-06-14 18:10:00,73.8,68.0,29.99,SW,217,3.0,6.0,82,0.00,,,0.00,VWS V14.01,2013-06-14 16:10:00,
2013-06-14 18:11:00,73.9,68.1,29.99,SW,217,2.0,6.0,82,0.00,,,0.00,VWS V14.01,2013-06-14 16:11:00,
2013-06-14 18:16:00,73.9,68.1,29.99,SW,222,4.0,6.0,82,0.00,,,0.00,VWS V14.01,2013-06-14 16:16:00,
2013-06-14 18:20:00,73.8,68.0,29.99,SW,236,2.0,6.0,82,0.00,,,0.00,VWS V14.01,2013-06-14 16:20:00,
2013-06-14 18:21:00,73.8,68.0,29.99,SW,236,4.0,6.0,82,0.00,,,0.00,VWS V14.01,2013-06-14 16:21:00,
2013-06-14 18:26:00,73.9,68.1,29.99,WSW,238,3.0,4.0,82,0.00,,,0.00,VWS V14.01,2013-06-14 16:26:00,
2013-06-14 18:30:00,73.8,66.5,29.99,WSW,257,2.0,6.0,78,0.00,,,0.00,VWS V14.01,2013-06-14 16:30:00,
2013-06-14 18:31:00,74.1,67.5,29.99,WSW,250,5.0,6.0,80,0.00,,,0.00,VWS V14.01,2013-06-14 16:31:00,
2013-06-14 18:36:00,73.8,66.2,29.99,WSW,254,2.0,5.0,77,0.00,,,0.00,VWS V14.01,2013-06-14 16:36:00,
2013-06-14 18:40:00,73.9,65.1,30.00,WSW,249,4.0,6.0,74,0.00,,,0.00,VWS V14.01,2013-06-14 16:40:00,
2013-06-14 18:41:00,74.1,65.3,30.00,WSW,248,6.0,6.0,74,0.00,,,0.00,VWS V14.01,2013-06-14 16:41:00,
2013-06-14 18:46:00,73.9,65.1,30.00,WSW,249,3.0,5.0,74,0.00,,,0.00,VWS V14.01,2013-06-14 16:46:00,
2013-06-14 18:50:00,74.3,63.5,30.00,West,263,3.0,8.0,69,0.00,,,0.00,VWS V14.01,2013-06-14 16:50:00,
2013-06-14 18:51:00,74.1,63.7,30.00,WSW,257,5.0,8.0,70,0.00,,,0.00,VWS V14.01,2013-06-14 16:51:00,
2013-06-14 18:56:00,74.6,63.8,30.00,West,262,6.0,7.0,69,0.00,,,0.00,VWS V14.01,2013-06-14 16:56:00,
2013-06-14 19:00:00,74.4,64.0,30.00,WSW,254,2.0,8.0,70,0.00,,,0.00,VWS V14.01,2013-06-14 17:00:00,
2013-06-14 19:01:00,74.4,63.6,30.00,WSW,254,6.0,8.0,69,0.00,,,0.00,VWS V14.01,2013-06-14 17:01:00,
2013-06-14 19:06:00,74.5,64.1,30.00,West,272,5.0,5.0,70,0.00,,,0.00,VWS V14.01,2013-06-14 17:06:00,
2013-06-14 19:10:00,74.1,64.9,30.00,WSW,254,6.0,7.0,73,0.00,,,0.00,VWS V14.01,2013-06-14 17:10:00,
2013-06-14 19:11:00,74.1,64.5,30.00,West,261,5.0,7.0,72,0.00,,,0.00,VWS V14.01,2013-06-14 17:11:00,
2013-06-14 19:16:00,73.9,64.7,30.00,West,259,4.0,6.0,73,0.00,,,0.00,VWS V14.01,2013-06-14 17:16:00,
2013-06-14 19:20:00,73.9,65.1,30.00,West,263,5.0,6.0,74,0.00,,,0.00,VWS V14.01,2013-06-14 17:20:00,
2013-06-14 19:21:00,74.0,64.8,30.00,West,260,4.0,6.0,73,0.00,,,0.00,VWS V14.01,2013-06-14 17:21:00,
2013-06-14 19:26:00,73.7,64.9,30.00,West,263,6.0,7.0,74,0.00,,,0.00,VWS V14.01,2013-06-14 17:26:00,
2013-06-14 19:30:00,73.6,65.2,30.00,West,263,4.0,7.0,75,0.00,,,0.00,VWS V14.01,2013-06-14 17:30:00,
2013-06-14 19:31:00,73.5,65.1,30.00,West,261,2.0,7.0,75,0.00,,,0.00,VWS V14.01,2013-06-14 17:31:00,
2013-06-14 19:36:00,73.6,65.6,30.00,West,261,5.0,5.0,76,0.00,,,0.00,VWS V14.01,2013-06-14 17:36:00,
2013-06-14 19:40:00,73.2,65.6,30.00,West,264,5.0,7.0,77,0.00,,,0.00,VWS V14.01,2013-06-14 17:40:00,
2013-06-14 19:41:00,73.4,65.8,30.00,West,264,5.0,7.0,77,0.00,,,0.00,VWS V14.01,2013-06-14 17:41:00,
2013-06-14 19:46:00,73.1,65.8,30.00,West,262,6.0,7.0,78,0.00,,,0.00,VWS V14.01,2013-06-14 17:46:00,
2013-06-14 19:50:00,72.9,66.0,30.00,WSW,250,6.0,7.0,79,0.00,,,0.00,VWS V14.01,2013-06-14 17:50:00,
2013-06-14 19:51:00,73.0,65.7,30.00,West,261,5.0,7.0,78,0.00,,,0.00,VWS V14.01,2013-06-14 17:51:00,
2013-06-14 19:56:00,72.8,65.9,30.00,WSW,257,6.0,8.0,79,0.00,,,0.00,VWS V14.01,2013-06-14 17:56:00,
2013-06-14 20:00:00,72.6,66.1,30.01,WSW,254,5.0,8.0,80,0.00,,,0.00,VWS V14.01,2013-06-14 18:00:00,
2013-06-14 20:05:00,72.4,66.2,30.01,West,264,3.0,6.0,81,0.00,,,0.00,VWS V14.01,2013-06-14 18:05:00,
2013-06-14 20:10:00,72.3,65.8,30.01,West,275,4.0,6.0,80,0.00,,,0.00,VWS V14.01,2013-06-14 18:10:00,
2013-06-14 20:15:00,72.1,65.9,30.00,West,273,3.0,6.0,81,0.00,,,0.00,VWS V14.01,2013-06-14 18:15:00,
2013-06-14 20:20:00,72.0,65.9,30.01,West,273,5.0,6.0,81,0.00,,,0.00,VWS V14.01,2013-06-14 18:20:00,
2013-06-14 20:25:00,71.8,66.0,30.01,WNW,284,1.0,5.0,82,0.00,,,0.00,VWS V14.01,2013-06-14 18:25:00,
2013-06-14 20:30:00,71.6,65.8,30.01,WNW,284,1.0,5.0,82,0.00,,,0.00,VWS V14.01,2013-06-14 18:30:00,
2013-06-14 20:36:00,71.5,65.7,30.01,WNW,284,0.0,0.0,82,0.00,,,0.00,VWS V14.01,2013-06-14 18:36:00,
2013-06-14 20:40:00,71.4,66.0,30.01,WNW,284,0.0,1.0,83,0.00,,,0.00,VWS V14.01,2013-06-14 18:40:00,
2013-06-14 20:41:00,71.5,66.1,30.01,WNW,284,0.0,1.0,83,0.00,,,0.00,VWS V14.01,2013-06-14 18:41:00,
2013-06-14 20:46:00,71.3,65.9,30.01,WNW,284,0.0,0.0,83,0.00,,,0.00,VWS V14.01,2013-06-14 18:46:00,
2013-06-14 20:50:00,71.3,65.9,30.01,WNW,284,0.0,1.0,83,0.00,,,0.00,VWS V14.01,2013-06-14 18:50:00,
2013-06-14 20:56:00,71.2,66.1,30.01,WNW,284,0.0,0.0,84,0.00,,,0.00,VWS V14.01,2013-06-14 18:56:00,
2013-06-14 21:00:00,70.9,65.8,30.01,WNW,282,1.0,2.0,84,0.00,,,0.00,VWS V14.01,2013-06-14 19:00:00,
2013-06-14 21:01:00,71.1,66.0,30.01,WNW,282,2.0,2.0,84,0.00,,,0.00,VWS V14.01,2013-06-14 19:01:00,
2013-06-14 21:05:00,70.8,66.1,30.01,WNW,282,0.0,2.0,85,0.00,,,0.00,VWS V14.01,2013-06-14 19:05:00,
2013-06-14 21:10:00,70.4,65.3,30.02,WNW,282,0.0,2.0,84,0.00,,,0.00,VWS V14.01,2013-06-14 19:10:00,
2013-06-14 21:15:00,70.0,65.3,30.02,WNW,282,0.0,2.0,85,0.00,,,0.00,VWS V14.01,2013-06-14 19:15:00,
2013-06-14 21:20:00,69.8,65.1,30.02,WNW,282,0.0,2.0,85,0.00,,,0.00,VWS V14.01,2013-06-14 19:20:00,
2013-06-14 21:25:00,70.0,65.3,30.02,WNW,282,0.0,0.0,85,0.00,,,0.00,VWS V14.01,2013-06-14 19:25:00,
2013-06-14 21:30:00,70.1,65.4,30.02,WNW,282,0.0,0.0,85,0.00,,,0.00,VWS V14.01,2013-06-14 19:30:00,
2013-06-14 21:35:00,70.2,65.8,30.02,WNW,282,0.0,0.0,86,0.00,,,0.00,VWS V14.01,2013-06-14 19:35:00,
2013-06-14 21:40:00,70.2,65.8,30.02,WNW,282,0.0,0.0,86,0.00,,,0.00,VWS V14.01,2013-06-14 19:40:00,
2013-06-14 21:45:00,70.2,65.8,30.02,WNW,282,0.0,0.0,86,0.00,,,0.00,VWS V14.01,2013-06-14 19:45:00,
2013-06-14 21:50:00,70.2,65.8,30.02,WNW,282,0.0,0.0,86,0.00,,,0.00,VWS V14.01,2013-06-14 19:50:00,
2013-06-14 21:55:00,70.1,65.7,30.03,WNW,282,0.0,0.0,86,0.00,,,0.00,VWS V14.01,2013-06-14 19:55:00,
2013-06-14 22:00:00,70.0,65.6,30.03,WNW,282,0.0,0.0,86,0.00,,,0.00,VWS V14.01,2013-06-14 20:00:00,
2013-06-14 22:05:00,69.9,65.5,30.03,WNW,282,0.0,0.0,86,0.00,,,0.00,VWS V14.01,2013-06-14 20:05:00,
2013-06-14 22:10:00,70.0,65.6,30.03,WNW,282,0.0,0.0,86,0.00,,,0.00,VWS V14.01,2013-06-14 20:10:00,
2013-06-14 22:15:00,69.9,65.5,30.03,WNW,282,0.0,0.0,86,0.00,,,0.00,VWS V14.01,2013-06-14 20:15:00,
2013-06-14 22:20:00,70.0,65.6,30.03,WNW,282,0.0,0.0,86,0.00,,,0.00,VWS V14.01,2013-06-14 20:20:00,
2013-06-14 22:25:00,69.9,65.5,30.03,WNW,282,0.0,0.0,86,0.00,,,0.00,VWS V14.01,2013-06-14 20:25:00,
2013-06-14 22:30:00,69.9,65.5,30.03,WNW,282,0.0,0.0,86,0.00,,,0.00,VWS V14.01,2013-06-14 20:30:00,
2013-06-14 22:35:00,69.8,65.4,30.03,WNW,282,0.0,0.0,86,0.00,,,0.00,VWS V14.01,2013-06-14 20:35:00,
2013-06-14 22:40:00,69.8,65.8,30.03,WNW,282,0.0,0.0,87,0.00,,,0.00,VWS V14.01,2013-06-14 20:40:00,
2013-06-14 22:45:00,69.6,65.6,30.03,WNW,282,0.0,1.0,87,0.00,,,0.00,VWS V14.01,2013-06-14 20:45:00,
2013-06-14 22:50:00,69.4,65.4,30.03,WNW,282,0.0,1.0,87,0.00,,,0.00,VWS V14.01,2013-06-14 20:50:00,
2013-06-14 22:55:00,69.3,65.3,30.03,WNW,282,0.0,1.0,87,0.00,,,0.00,VWS V14.01,2013-06-14 20:55:00,
2013-06-14 23:00:00,69.5,65.5,30.02,WNW,282,0.0,1.0,87,0.00,,,0.00,VWS V14.01,2013-06-14 21:00:00,
2013-06-14 23:05:00,69.3,65.3,30.03,WNW,282,0.0,0.0,87,0.00,,,0.00,VWS V14.01,2013-06-14 21:05:00,
2013-06-14 23:10:00,69.2,65.2,30.03,WNW,282,0.0,0.0,87,0.00,,,0.00,VWS V14.01,2013-06-14 21:10:00,
2013-06-14 23:15:00,69.1,65.1,30.03,WNW,282,0.0,0.0,87,0.00,,,0.00,VWS V14.01,2013-06-14 21:15:00,
2013-06-14 23:20:00,68.8,64.8,30.03,WNW,282,0.0,1.0,87,0.00,,,0.00,VWS V14.01,2013-06-14 21:20:00,
2013-06-14 23:25:00,69.2,65.2,30.03,WNW,282,0.0,0.0,87,0.00,,,0.00,VWS V14.01,2013-06-14 21:25:00,
2013-06-14 23:30:00,69.2,65.2,30.03,WNW,282,0.0,0.0,87,0.00,,,0.00,VWS V14.01,2013-06-14 21:30:00,
2013-06-14 23:35:00,69.1,65.1,30.03,WNW,282,0.0,0.0,87,0.00,,,0.00,VWS V14.01,2013-06-14 21:35:00,
2013-06-14 23:40:00,68.9,64.9,30.03,WNW,282,1.0,1.0,87,0.00,,,0.00,VWS V14.01,2013-06-14 21:40:00,
2013-06-14 23:45:00,68.3,64.3,30.03,WNW,282,1.0,2.0,87,0.00,,,0.00,VWS V14.01,2013-06-14 21:45:00,
2013-06-14 23:50:00,68.5,64.5,30.03,WNW,282,0.0,3.0,87,0.00,,,0.00,VWS V14.01,2013-06-14 21:50:00,
2013-06-14 23:55:00,68.5,64.5,30.03,WNW,282,0.0,0.0,87,0.00,,,0.00,VWS V14.01,2013-06-14 21:55:00,